Walnut Hill, Florida
Current Conditions -  °F | °C
As of 9:56 PM on Thursday 27 Nov 2014 (Local Time) from KNSE Reporting Station
Clear Clear  
Wind Chill: 37°   Ceiling: Unl
Heat Index: 41°   Visibility: 10mi
Dew Point: 31°   Wind: 6mph
Humidity: 67%   Direction: 360°N
Pressure: 30.44"   Gusts: NA
Location:  30.8697°N, 87.4663°W
Report Text: KNSE 280356Z AUTO 36005KT 10SM CLR 05/M01 A3044 RMK AO2 SLP298 T00501006 $
Loading
Personal Weather Stations






























Interactive Weather Map New forecast layout! Learn more

10-Day Weather Forecast

Advertisements
Track Severe Weather on mobile